createdAt,value
2024-04-22T00:00:48.865Z,53.82
2024-04-22T00:03:15.813Z,53.73
2024-04-22T00:05:42.741Z,54.01
2024-04-22T00:08:09.689Z,54.15
2024-04-22T00:10:36.613Z,54.00
2024-04-22T00:13:03.696Z,54.28
2024-04-22T00:15:30.629Z,54.41
2024-04-22T00:17:57.622Z,54.48
2024-04-22T00:20:24.518Z,54.34
2024-04-22T00:22:51.431Z,54.17
2024-04-22T00:25:18.440Z,54.38
2024-04-22T00:27:45.394Z,54.13
2024-04-22T00:30:12.362Z,54.39
2024-04-22T00:32:39.318Z,54.35
2024-04-22T00:35:06.449Z,54.33
2024-04-22T00:37:33.386Z,54.68
2024-04-22T00:40:00.414Z,54.54
2024-04-22T00:42:27.392Z,54.74
2024-04-22T00:44:54.288Z,54.22
2024-04-22T00:47:21.410Z,54.34
2024-04-22T00:49:49.394Z,54.69
2024-04-22T00:52:16.387Z,54.50
2024-04-22T00:54:43.452Z,54.71
2024-04-22T00:57:11.911Z,54.82
2024-04-22T00:59:39.307Z,54.52
2024-04-22T01:02:06.824Z,54.41
2024-04-22T01:04:36.582Z,53.98
2024-04-22T01:07:03.621Z,52.80
2024-04-22T01:09:30.553Z,54.50
2024-04-22T01:11:57.493Z,54.18
2024-04-22T01:14:24.750Z,54.33
2024-04-22T01:16:55.904Z,53.85
2024-04-22T01:19:24.104Z,54.32
2024-04-22T01:21:52.136Z,54.16
2024-04-22T01:24:20.328Z,54.45
2024-04-22T01:26:47.995Z,54.15
2024-04-22T01:29:14.981Z,54.46
2024-04-22T01:31:41.899Z,54.65
2024-04-22T01:34:09.057Z,54.76
2024-04-22T01:36:37.788Z,54.79
2024-04-22T01:39:04.844Z,54.67
2024-04-22T01:41:31.786Z,54.59
2024-04-22T01:43:58.792Z,54.73
2024-04-22T01:46:25.823Z,54.40
2024-04-22T01:48:52.832Z,54.54
2024-04-22T01:51:19.745Z,54.56
2024-04-22T01:53:46.719Z,54.43
2024-04-22T01:56:13.631Z,54.14
2024-04-22T01:58:40.583Z,54.20
2024-04-22T02:01:09.236Z,54.02
2024-04-22T02:03:36.254Z,54.25
2024-04-22T02:06:03.255Z,53.85
2024-04-22T02:08:30.182Z,53.97
2024-04-22T02:10:57.279Z,53.90
2024-04-22T02:13:25.737Z,54.16
2024-04-22T02:15:52.713Z,54.05
2024-04-22T02:18:19.696Z,54.21
2024-04-22T02:20:46.707Z,54.31
2024-04-22T02:23:13.763Z,54.30
2024-04-22T02:25:41.169Z,54.27
2024-04-22T02:28:08.204Z,54.06
2024-04-22T02:30:35.251Z,53.79
2024-04-22T02:33:02.226Z,53.80
2024-04-22T02:35:29.240Z,53.52
2024-04-22T02:37:56.105Z,54.15
2024-04-22T02:40:23.071Z,53.98
2024-04-22T02:42:49.995Z,53.94
2024-04-22T02:45:16.965Z,53.98
2024-04-22T02:47:43.918Z,53.70
2024-04-22T02:50:10.943Z,53.89
2024-04-22T02:52:37.931Z,53.63
2024-04-22T02:55:05.067Z,53.53
2024-04-22T02:57:31.983Z,52.90
2024-04-22T02:59:58.984Z,53.32
2024-04-22T03:02:26.012Z,53.14
2024-04-22T03:04:53.040Z,52.99
2024-04-22T03:07:20.144Z,52.92
2024-04-22T03:09:47.044Z,52.98
2024-04-22T03:12:14.663Z,53.27
2024-04-22T03:14:41.824Z,53.09
2024-04-22T03:17:08.809Z,53.10
2024-04-22T03:19:35.890Z,53.15
2024-04-22T03:22:02.995Z,53.32
2024-04-22T03:24:29.961Z,53.03
2024-04-22T03:26:56.875Z,53.58
2024-04-22T03:29:23.793Z,53.59
2024-04-22T03:31:50.789Z,53.35
2024-04-22T03:34:17.822Z,53.42
2024-04-22T03:36:44.744Z,53.75
2024-04-22T03:39:11.702Z,53.05
2024-04-22T03:41:38.651Z,53.17
2024-04-22T03:44:05.628Z,53.38
2024-04-22T03:46:51.720Z,53.49
2024-04-22T03:49:36.908Z,53.74
2024-04-22T03:52:04.648Z,53.39
2024-04-22T03:54:31.699Z,53.77
2024-04-22T03:56:58.713Z,53.53
2024-04-22T03:59:25.641Z,53.06
2024-04-22T04:01:52.655Z,53.35
2024-04-22T04:04:19.781Z,53.33
2024-04-22T04:06:46.774Z,53.50
2024-04-22T04:09:13.732Z,53.37
2024-04-22T04:11:41.354Z,53.68
2024-04-22T04:14:08.900Z,53.57
2024-04-22T04:16:36.087Z,53.57
2024-04-22T04:19:03.937Z,53.51
2024-04-22T04:21:31.102Z,53.34
2024-04-22T04:23:58.018Z,52.88
2024-04-22T04:26:24.947Z,52.87
2024-04-22T04:28:52.075Z,53.15
2024-04-22T04:31:19.919Z,53.34
2024-04-22T04:33:47.090Z,53.34
2024-04-22T04:36:14.030Z,53.41
2024-04-22T04:38:40.943Z,53.09
2024-04-22T04:41:07.853Z,53.19
2024-04-22T04:43:34.868Z,52.58
2024-04-22T04:46:01.801Z,52.98
2024-04-22T04:48:29.588Z,52.97
2024-04-22T04:50:56.540Z,53.27
2024-04-22T04:53:23.543Z,53.49
2024-04-22T04:55:50.679Z,53.40
2024-04-22T04:58:19.542Z,53.01
2024-04-22T05:00:47.588Z,52.40
2024-04-22T05:03:15.130Z,52.26
2024-04-22T05:05:42.093Z,52.08
2024-04-22T05:08:09.098Z,51.92
2024-04-22T05:10:36.218Z,52.03
2024-04-22T05:13:03.282Z,52.01
2024-04-22T05:15:30.306Z,51.90
2024-04-22T05:17:57.274Z,51.96
2024-04-22T05:20:24.239Z,51.61
2024-04-22T05:22:51.211Z,51.65
2024-04-22T05:25:18.172Z,51.84
2024-04-22T05:27:45.110Z,52.05
2024-04-22T05:30:12.270Z,51.16
2024-04-22T05:32:39.537Z,51.42
2024-04-22T05:35:25.188Z,51.96
2024-04-22T05:37:52.190Z,51.72
2024-04-22T05:40:19.210Z,51.32
2024-04-22T05:42:46.191Z,51.43
2024-04-22T05:45:13.145Z,50.98
2024-04-22T05:47:40.185Z,50.07
2024-04-22T05:50:07.509Z,50.28
2024-04-22T05:52:34.522Z,50.29
2024-04-22T05:55:02.277Z,50.20
2024-04-22T05:57:29.242Z,50.40
2024-04-22T05:59:56.380Z,49.73
2024-04-22T06:02:23.342Z,49.45
2024-04-22T06:04:50.363Z,50.13
2024-04-22T06:07:17.376Z,49.63
2024-04-22T06:09:44.302Z,49.40
2024-04-22T06:12:17.808Z,49.16
2024-04-22T06:14:47.104Z,48.74
2024-04-22T06:17:14.273Z,48.26
2024-04-22T06:19:41.544Z,48.06
2024-04-22T06:22:08.683Z,47.21
2024-04-22T06:24:35.621Z,47.42
2024-04-22T06:27:02.595Z,47.29
2024-04-22T06:29:29.529Z,46.34
2024-04-22T06:31:56.583Z,46.77
2024-04-22T06:34:23.605Z,46.09
2024-04-22T06:36:50.546Z,44.61
2024-04-22T06:39:17.810Z,43.72
2024-04-22T06:41:44.898Z,44.04
2024-04-22T06:44:12.066Z,43.90
2024-04-22T06:46:39.578Z,42.59
2024-04-22T06:49:06.878Z,42.92
2024-04-22T06:51:33.795Z,42.49
2024-04-22T06:54:00.714Z,42.01
2024-04-22T06:56:28.392Z,41.94
2024-04-22T06:58:55.506Z,41.75
2024-04-22T07:01:31.005Z,41.18
2024-04-22T07:04:05.563Z,41.27
2024-04-22T07:06:32.836Z,40.67
2024-04-22T07:09:00.047Z,41.00
2024-04-22T07:11:27.107Z,40.36
2024-04-22T07:13:54.165Z,40.45
2024-04-22T07:16:21.849Z,39.70
2024-04-22T07:18:51.899Z,38.46
2024-04-22T07:21:20.898Z,38.78
2024-04-22T07:23:48.223Z,38.36
2024-04-22T07:26:15.147Z,38.10
2024-04-22T07:28:42.766Z,38.83
2024-04-22T07:31:10.116Z,37.63
2024-04-22T07:33:37.594Z,37.65
2024-04-22T07:36:22.662Z,41.38
2024-04-22T07:38:51.354Z,35.79
2024-04-22T07:41:18.569Z,36.43
2024-04-22T07:43:45.589Z,35.57
2024-04-22T07:46:14.210Z,35.60
2024-04-22T07:48:41.202Z,34.99
2024-04-22T07:51:08.137Z,34.78
2024-04-22T07:53:35.291Z,34.35
2024-04-22T07:56:02.600Z,33.92
2024-04-22T07:58:30.078Z,32.80
2024-04-22T08:00:57.324Z,32.35
2024-04-22T08:03:24.546Z,31.97
2024-04-22T08:05:54.540Z,32.39
2024-04-22T08:08:22.889Z,32.10
2024-04-22T08:10:50.568Z,32.18
2024-04-22T08:13:17.549Z,31.53
2024-04-22T08:15:44.484Z,31.33
2024-04-22T08:18:11.921Z,29.86
2024-04-22T08:20:38.865Z,28.92
2024-04-22T08:23:05.831Z,27.96
2024-04-22T08:25:32.724Z,27.05
2024-04-22T08:27:59.752Z,26.83
2024-04-22T08:30:27.820Z,25.93
2024-04-22T08:32:58.319Z,25.61
2024-04-22T08:35:25.350Z,25.14
2024-04-22T08:37:52.307Z,25.14
2024-04-22T08:40:24.757Z,24.93
2024-04-22T08:42:54.464Z,24.37
2024-04-22T08:45:21.476Z,24.53
2024-04-22T08:47:50.593Z,24.75
2024-04-22T08:50:17.567Z,33.02
2024-04-22T08:52:51.645Z,25.54
2024-04-22T08:55:23.588Z,24.92
2024-04-22T08:57:50.949Z,25.23
2024-04-22T09:00:17.937Z,25.15
2024-04-22T09:02:45.239Z,24.60
2024-04-22T09:05:12.383Z,24.64
2024-04-22T09:07:39.500Z,23.89
2024-04-22T09:10:34.696Z,23.90
2024-04-22T09:13:00.693Z,25.98
2024-04-22T09:15:29.186Z,24.22
2024-04-22T09:17:57.033Z,24.00
2024-04-22T09:20:26.803Z,24.41
2024-04-22T09:22:54.003Z,24.07
2024-04-22T09:25:21.224Z,24.22
2024-04-22T09:27:51.889Z,25.30
2024-04-22T09:30:24.949Z,24.42
2024-04-22T09:32:55.367Z,24.11
2024-04-22T09:35:22.915Z,23.62
2024-04-22T09:37:51.519Z,23.32
2024-04-22T09:40:20.349Z,23.71
2024-04-22T09:42:48.934Z,22.84
2024-04-22T09:45:16.952Z,23.57
2024-04-22T09:47:45.254Z,22.60
2024-04-22T09:50:12.692Z,23.69
2024-04-22T09:52:40.870Z,23.01
2024-04-22T09:55:11.086Z,22.07
2024-04-22T09:57:43.064Z,24.62
2024-04-22T10:00:10.739Z,22.60
2024-04-22T10:02:38.791Z,22.76
2024-04-22T10:05:14.945Z,24.96
2024-04-22T10:07:42.351Z,23.38
2024-04-22T10:10:10.777Z,23.75
2024-04-22T10:12:38.404Z,23.75
2024-04-22T10:15:23.636Z,26.72
2024-04-22T10:17:50.679Z,24.99
2024-04-22T10:20:18.817Z,25.23
2024-04-22T10:22:46.130Z,26.42
2024-04-22T10:25:19.738Z,27.55
2024-04-22T10:27:46.880Z,26.68
2024-04-22T10:30:13.873Z,27.30
2024-04-22T10:32:40.846Z,28.20
2024-04-22T10:35:07.844Z,27.89
2024-04-22T10:37:34.929Z,27.64
2024-04-22T10:40:01.890Z,28.68
2024-04-22T10:42:29.925Z,28.92
2024-04-22T10:44:56.976Z,29.38
2024-04-22T10:47:24.147Z,28.96
2024-04-22T10:49:51.339Z,29.39
2024-04-22T10:52:18.486Z,29.29
2024-04-22T10:54:46.877Z,30.12
2024-04-22T10:57:14.961Z,30.71
2024-04-22T10:59:42.062Z,30.94
2024-04-22T11:02:11.272Z,31.14
2024-04-22T11:04:41.753Z,31.69
2024-04-22T11:07:08.816Z,31.34
2024-04-22T11:09:36.123Z,31.67
2024-04-22T11:12:03.697Z,32.12
2024-04-22T11:14:33.808Z,32.18
2024-04-22T11:17:00.840Z,32.45
2024-04-22T11:19:28.161Z,32.90
2024-04-22T11:21:55.196Z,33.29
2024-04-22T11:24:22.517Z,33.05
2024-04-22T11:26:49.620Z,33.04
2024-04-22T11:29:16.721Z,33.17
2024-04-22T11:31:45.394Z,33.40
2024-04-22T11:34:12.768Z,33.70
2024-04-22T11:36:40.352Z,32.98
2024-04-22T11:39:13.198Z,33.09
2024-04-22T11:41:40.277Z,32.77
2024-04-22T11:44:07.883Z,33.65
2024-04-22T11:46:35.064Z,33.31
2024-04-22T11:49:02.034Z,33.58
2024-04-22T11:51:29.093Z,33.62
2024-04-22T11:53:56.007Z,33.61
2024-04-22T11:56:27.254Z,33.83
2024-04-22T11:58:54.257Z,34.13
2024-04-22T12:01:21.200Z,34.80
2024-04-22T12:03:48.289Z,34.67
2024-04-22T12:06:15.488Z,34.63
2024-04-22T12:08:42.446Z,34.78
2024-04-22T12:11:09.803Z,34.57
2024-04-22T12:13:36.776Z,35.00
2024-04-22T12:16:04.033Z,34.32
2024-04-22T12:18:31.037Z,35.08
2024-04-22T12:20:58.731Z,35.66
2024-04-22T12:23:25.805Z,35.35
2024-04-22T12:25:55.055Z,34.97
2024-04-22T12:28:22.694Z,35.67
2024-04-22T12:30:52.816Z,35.26
2024-04-22T12:33:20.302Z,35.71
2024-04-22T12:35:47.313Z,35.50
2024-04-22T12:38:14.214Z,36.30
2024-04-22T12:40:41.833Z,35.86
2024-04-22T12:43:11.785Z,35.46
2024-04-22T12:45:42.326Z,35.92
2024-04-22T12:48:38.982Z,35.52
2024-04-22T12:51:07.030Z,35.67
2024-04-22T12:53:34.004Z,36.21
2024-04-22T12:56:02.045Z,36.01
2024-04-22T12:58:29.978Z,36.26
2024-04-22T13:00:57.131Z,37.24
2024-04-22T13:03:24.172Z,36.72
2024-04-22T13:05:51.177Z,37.26
2024-04-22T13:08:18.155Z,36.72
2024-04-22T13:10:45.244Z,36.90
2024-04-22T13:13:12.306Z,37.37
2024-04-22T13:15:39.240Z,36.64
2024-04-22T13:18:06.430Z,37.04
2024-04-22T13:20:34.067Z,37.67
2024-04-22T13:23:01.049Z,37.38
2024-04-22T13:25:28.193Z,37.65
2024-04-22T13:27:56.199Z,38.14
2024-04-22T13:30:23.187Z,37.92
2024-04-22T13:32:52.345Z,37.55
2024-04-22T13:35:19.566Z,37.66
2024-04-22T13:37:46.972Z,37.53
2024-04-22T13:40:14.146Z,37.57
2024-04-22T13:42:45.590Z,37.61
2024-04-22T13:45:14.565Z,37.21
2024-04-22T13:47:41.577Z,37.49
2024-04-22T13:50:08.611Z,37.74
2024-04-22T13:52:35.680Z,38.03
2024-04-22T13:55:05.798Z,37.87
2024-04-22T13:57:39.023Z,37.45
2024-04-22T14:00:09.588Z,38.12
2024-04-22T14:02:38.475Z,38.15
2024-04-22T14:05:05.752Z,38.34
2024-04-22T14:07:32.887Z,38.42
2024-04-22T14:09:59.823Z,38.80
2024-04-22T14:12:26.812Z,38.85
2024-04-22T14:14:53.789Z,39.06
2024-04-22T14:17:21.679Z,38.75
2024-04-22T14:19:48.692Z,39.00
2024-04-22T14:22:15.725Z,39.13
2024-04-22T14:24:43.077Z,39.62
2024-04-22T14:27:10.005Z,39.57
2024-04-22T14:29:36.979Z,39.91
2024-04-22T14:32:05.334Z,39.22
2024-04-22T14:34:32.356Z,39.60
2024-04-22T14:36:59.279Z,40.20
2024-04-22T14:39:26.212Z,40.43
2024-04-22T14:41:53.114Z,40.14
2024-04-22T14:44:20.088Z,40.91
2024-04-22T14:46:47.075Z,40.38
2024-04-22T14:49:14.057Z,40.06
2024-04-22T14:51:41.010Z,40.58
2024-04-22T14:54:08.727Z,41.25
2024-04-22T14:56:35.799Z,41.27
2024-04-22T14:59:05.636Z,41.18
2024-04-22T15:01:34.201Z,41.37
2024-04-22T15:04:01.374Z,42.15
2024-04-22T15:06:28.390Z,41.24
2024-04-22T15:08:56.182Z,41.41
2024-04-22T15:11:25.437Z,41.45
2024-04-22T15:13:52.640Z,41.51
2024-04-22T15:16:21.237Z,41.83
2024-04-22T15:18:48.224Z,41.92
2024-04-22T15:21:15.593Z,42.48
2024-04-22T15:23:42.602Z,42.61
2024-04-22T15:26:09.538Z,42.18
2024-04-22T15:28:36.587Z,42.27
2024-04-22T15:31:06.350Z,41.74
2024-04-22T15:33:33.598Z,41.86
2024-04-22T15:36:01.614Z,42.25
2024-04-22T15:38:28.571Z,42.10
2024-04-22T15:40:56.142Z,42.16
2024-04-22T15:43:23.230Z,42.44
2024-04-22T15:45:50.169Z,42.14
2024-04-22T15:48:23.715Z,42.59
2024-04-22T15:50:51.531Z,41.81
2024-04-22T15:53:19.306Z,41.89
2024-04-22T15:55:57.469Z,41.08
2024-04-22T15:58:24.895Z,42.07
2024-04-22T16:00:53.189Z,42.34
2024-04-22T16:03:20.303Z,42.35
2024-04-22T16:05:47.580Z,41.99
2024-04-22T16:08:14.603Z,42.16
2024-04-22T16:10:44.553Z,42.06
2024-04-22T16:13:11.467Z,40.68
2024-04-22T16:15:39.491Z,42.86
2024-04-22T16:18:08.761Z,42.87
2024-04-22T16:20:35.657Z,43.16
2024-04-22T16:23:05.676Z,42.22
2024-04-22T16:25:33.668Z,42.58
2024-04-22T16:28:00.847Z,42.51
2024-04-22T16:30:27.797Z,43.10
2024-04-22T16:32:55.002Z,42.53
2024-04-22T16:35:22.046Z,43.94
2024-04-22T16:37:49.264Z,42.77
2024-04-22T16:40:16.298Z,43.28
2024-04-22T16:42:43.282Z,43.19
2024-04-22T16:45:11.177Z,42.89
2024-04-22T16:47:38.507Z,43.54
2024-04-22T16:50:06.553Z,43.30
2024-04-22T16:52:34.776Z,43.41
2024-04-22T16:55:01.790Z,43.49
2024-04-22T16:57:28.801Z,43.80
2024-04-22T16:59:56.914Z,43.46
2024-04-22T17:02:24.358Z,43.83
2024-04-22T17:04:51.416Z,43.79
2024-04-22T17:07:18.366Z,43.14
2024-04-22T17:09:45.358Z,43.57
2024-04-22T17:12:12.268Z,43.29
2024-04-22T17:14:39.221Z,43.86
2024-04-22T17:17:08.241Z,43.66
2024-04-22T17:19:35.874Z,43.84
2024-04-22T17:22:02.895Z,44.35
2024-04-22T17:24:29.836Z,44.51
2024-04-22T17:26:59.588Z,44.96
2024-04-22T17:29:26.991Z,44.36
2024-04-22T17:31:54.097Z,44.60
2024-04-22T17:34:21.085Z,45.18
2024-04-22T17:36:47.972Z,45.26
2024-04-22T17:39:15.321Z,44.50
2024-04-22T17:41:42.302Z,45.53
2024-04-22T17:44:09.321Z,45.19
2024-04-22T17:46:36.242Z,45.40
2024-04-22T17:49:06.524Z,45.49
2024-04-22T17:51:36.870Z,44.88
2024-04-22T17:54:03.954Z,45.16
2024-04-22T17:56:33.456Z,45.17
2024-04-22T17:59:00.777Z,45.49
2024-04-22T18:01:27.769Z,45.84
2024-04-22T18:03:54.751Z,45.54
2024-04-22T18:06:21.815Z,45.70
2024-04-22T18:08:49.600Z,45.99
2024-04-22T18:11:17.018Z,46.13
2024-04-22T18:13:44.186Z,46.15
2024-04-22T18:16:11.167Z,45.78
2024-04-22T18:18:38.166Z,46.03
2024-04-22T18:21:06.965Z,46.09
2024-04-22T18:23:34.141Z,46.12
2024-04-22T18:26:09.254Z,46.53
2024-04-22T18:28:40.503Z,46.17
2024-04-22T18:31:07.610Z,46.61
2024-04-22T18:33:34.856Z,46.52
2024-04-22T18:36:01.909Z,46.43
2024-04-22T18:38:29.367Z,46.91
2024-04-22T18:40:56.385Z,47.15
2024-04-22T18:43:23.440Z,47.25
2024-04-22T18:45:50.444Z,47.15
2024-04-22T18:48:17.474Z,47.04
2024-04-22T18:50:44.616Z,47.14
2024-04-22T18:53:12.170Z,47.24
2024-04-22T18:55:39.174Z,46.83
2024-04-22T18:58:06.884Z,47.13
2024-04-22T19:00:34.013Z,46.59
2024-04-22T19:03:01.008Z,46.94
2024-04-22T19:05:27.977Z,47.49
2024-04-22T19:07:55.066Z,47.42
2024-04-22T19:10:23.048Z,47.12
2024-04-22T19:12:51.403Z,47.30
2024-04-22T19:15:18.962Z,46.96
2024-04-22T19:17:46.121Z,47.19
2024-04-22T19:20:13.575Z,46.62
2024-04-22T19:22:40.743Z,46.77
2024-04-22T19:25:09.099Z,46.68
2024-04-22T19:27:36.077Z,46.72
2024-04-22T19:30:03.197Z,46.40
2024-04-22T19:32:30.672Z,46.41
2024-04-22T19:34:57.784Z,46.38
2024-04-22T19:37:24.853Z,46.91
2024-04-22T19:39:51.774Z,46.20
2024-04-22T19:42:18.755Z,46.94
2024-04-22T19:44:45.756Z,46.54
2024-04-22T19:47:12.939Z,46.41
2024-04-22T19:49:39.953Z,46.87
2024-04-22T19:52:08.135Z,46.53
2024-04-22T19:54:35.112Z,46.74
2024-04-22T19:57:02.028Z,46.02
2024-04-22T19:59:28.958Z,46.52
2024-04-22T20:01:55.965Z,46.28
2024-04-22T20:04:23.136Z,46.07
2024-04-22T20:06:50.158Z,46.34
2024-04-22T20:09:17.066Z,46.09
2024-04-22T20:11:44.074Z,46.12
2024-04-22T20:14:11.119Z,45.89
2024-04-22T20:16:49.429Z,46.30
2024-04-22T20:19:20.266Z,46.36
2024-04-22T20:21:47.462Z,46.79
2024-04-22T20:24:18.280Z,45.99
2024-04-22T20:26:45.355Z,46.81
2024-04-22T20:29:12.285Z,47.37
2024-04-22T20:31:39.414Z,47.48
2024-04-22T20:34:06.472Z,47.32
2024-04-22T20:36:33.467Z,47.68
2024-04-22T20:39:00.418Z,47.56
2024-04-22T20:41:27.373Z,47.29
2024-04-22T20:44:00.318Z,46.88
2024-04-22T20:46:27.432Z,48.30
2024-04-22T20:48:54.600Z,48.40
2024-04-22T20:51:21.672Z,48.06
2024-04-22T20:53:48.632Z,47.59
2024-04-22T20:56:15.558Z,47.86
2024-04-22T20:58:42.506Z,47.92
2024-04-22T21:01:10.605Z,47.45
2024-04-22T21:03:37.676Z,48.13
2024-04-22T21:06:05.808Z,47.19
2024-04-22T21:08:34.039Z,47.57
2024-04-22T21:11:03.341Z,47.52
2024-04-22T21:13:41.659Z,47.18
2024-04-22T21:16:10.178Z,47.70
2024-04-22T21:18:37.697Z,47.12
2024-04-22T21:21:05.058Z,46.19
2024-04-22T21:23:32.710Z,46.63
2024-04-22T21:25:59.770Z,47.37
2024-04-22T21:28:26.721Z,47.10
2024-04-22T21:30:53.651Z,46.91
2024-04-22T21:33:35.334Z,46.81
2024-04-22T21:36:07.675Z,47.04
2024-04-22T21:38:34.630Z,47.11
2024-04-22T21:41:01.548Z,46.45
2024-04-22T21:43:28.574Z,46.89
2024-04-22T21:45:55.674Z,46.77
2024-04-22T21:48:25.111Z,47.05
2024-04-22T21:50:53.028Z,46.62
2024-04-22T21:53:23.479Z,46.71
2024-04-22T21:55:51.798Z,47.39
2024-04-22T21:58:56.500Z,45.89
2024-04-22T22:02:01.516Z,45.59
2024-04-22T22:05:06.430Z,45.95
2024-04-22T22:07:33.331Z,46.82
2024-04-22T22:10:00.547Z,46.81
2024-04-22T22:12:27.475Z,47.04
2024-04-22T22:14:54.459Z,47.44
2024-04-22T22:17:21.603Z,47.26
2024-04-22T22:19:50.603Z,47.34
2024-04-22T22:22:18.357Z,47.18
2024-04-22T22:24:46.361Z,48.17
2024-04-22T22:27:15.220Z,48.40
2024-04-22T22:29:42.914Z,48.51
2024-04-22T22:32:10.580Z,48.39
2024-04-22T22:34:37.881Z,48.60
2024-04-22T22:37:06.715Z,48.54
2024-04-22T22:39:34.807Z,48.74
2024-04-22T22:42:02.250Z,48.03
2024-04-22T22:44:29.139Z,48.92
2024-04-22T22:47:06.719Z,47.57
2024-04-22T22:49:34.087Z,48.39
2024-04-22T22:52:01.146Z,48.75
2024-04-22T22:54:28.104Z,48.69
2024-04-22T22:56:56.768Z,48.26
2024-04-22T22:59:23.789Z,48.08
2024-04-22T23:01:55.193Z,48.01
2024-04-22T23:04:22.554Z,48.64
2024-04-22T23:06:49.554Z,48.73
2024-04-22T23:09:16.486Z,48.96
2024-04-22T23:11:43.424Z,48.65
2024-04-22T23:14:10.387Z,48.74
2024-04-22T23:16:37.527Z,48.93
2024-04-22T23:19:04.446Z,49.50
2024-04-22T23:21:31.343Z,49.20
2024-04-22T23:23:58.370Z,49.19
2024-04-22T23:26:25.327Z,49.95
2024-04-22T23:28:52.524Z,50.13
2024-04-22T23:31:19.667Z,50.00
2024-04-22T23:33:46.649Z,49.76
2024-04-22T23:36:13.660Z,49.87
2024-04-22T23:38:40.629Z,50.27
2024-04-22T23:41:07.592Z,50.59
2024-04-22T23:43:34.671Z,50.77
2024-04-22T23:46:01.660Z,50.97
2024-04-22T23:48:28.568Z,50.64
2024-04-22T23:50:55.637Z,51.37
2024-04-22T23:53:22.574Z,51.15
2024-04-22T23:55:49.506Z,51.26
2024-04-22T23:58:16.425Z,51.53
